sensor_id;sensor_type;location;lat;lon;timestamp;temperature;humidity
9598;DHT22;4837;50.890;4.724;2023-09-08T07:35:55;32.10;99.90
9598;DHT22;4837;50.890;4.724;2023-09-08T07:38:21;27.60;1.00
9598;DHT22;4837;50.890;4.724;2023-09-08T07:40:47;27.80;57.60
9598;DHT22;4837;50.890;4.724;2023-09-08T07:43:12;28.10;99.90
9598;DHT22;4837;50.890;4.724;2023-09-08T07:45:38;29.00;99.90
9598;DHT22;4837;50.890;4.724;2023-09-08T07:48:06;29.50;1.00
9598;DHT22;4837;50.890;4.724;2023-09-08T07:50:32;29.90;1.00
9598;DHT22;4837;50.890;4.724;2023-09-08T07:52:58;30.40;99.90
9598;DHT22;4837;50.890;4.724;2023-09-08T07:55:24;30.60;1.00
9598;DHT22;4837;50.890;4.724;2023-09-08T07:57:53;30.00;99.90
9598;DHT22;4837;50.890;4.724;2023-09-08T08:00:19;30.60;1.00
9598;DHT22;4837;50.890;4.724;2023-09-08T08:02:50;30.60;1.00
9598;DHT22;4837;50.890;4.724;2023-09-08T08:05:16;30.70;1.00
9598;DHT22;4837;50.890;4.724;2023-09-08T08:07:43;31.30;99.90
9598;DHT22;4837;50.890;4.724;2023-09-08T08:10:09;31.50;99.90
9598;DHT22;4837;50.890;4.724;2023-09-08T08:12:37;31.70;99.90
9598;DHT22;4837;50.890;4.724;2023-09-08T08:15:03;31.90;28.20
9598;DHT22;4837;50.890;4.724;2023-09-08T08:17:30;31.90;1.00
9598;DHT22;4837;50.890;4.724;2023-09-08T08:19:57;32.10;1.00
9598;DHT22;4837;50.890;4.724;2023-09-08T08:22:27;32.20;1.00
9598;DHT22;4837;50.890;4.724;2023-09-08T08:24:52;32.50;1.00
9598;DHT22;4837;50.890;4.724;2023-09-08T08:27:18;32.50;1.00
9598;DHT22;4837;50.890;4.724;2023-09-08T08:29:44;32.70;1.00
9598;DHT22;4837;50.890;4.724;2023-09-08T08:32:09;33.00;1.00
9598;DHT22;4837;50.890;4.724;2023-09-08T08:34:36;32.70;1.00
9598;DHT22;4837;50.890;4.724;2023-09-08T08:37:02;33.10;1.00
9598;DHT22;4837;50.890;4.724;2023-09-08T08:39:28;33.30;1.00
9598;DHT22;4837;50.890;4.724;2023-09-08T08:41:54;33.30;1.00
9598;DHT22;4837;50.890;4.724;2023-09-08T08:44:20;33.20;1.00
9598;DHT22;4837;50.890;4.724;2023-09-08T08:46:46;33.50;1.00
9598;DHT22;4837;50.890;4.724;2023-09-08T08:49:15;33.90;1.00
9598;DHT22;4837;50.890;4.724;2023-09-08T08:51:45;34.20;1.00
9598;DHT22;4837;50.890;4.724;2023-09-08T08:54:13;34.00;1.00
9598;DHT22;4837;50.890;4.724;2023-09-08T08:56:41;33.80;1.00
9598;DHT22;4837;50.890;4.724;2023-09-08T08:59:09;34.10;1.00
9598;DHT22;4837;50.890;4.724;2023-09-08T09:01:35;34.40;99.90
9598;DHT22;4837;50.890;4.724;2023-09-08T09:04:01;33.80;1.00
9598;DHT22;4837;50.890;4.724;2023-09-08T09:06:30;33.80;1.00
9598;DHT22;4837;50.890;4.724;2023-09-08T09:08:56;33.90;1.00
9598;DHT22;4837;50.890;4.724;2023-09-08T09:11:22;34.40;99.90
9598;DHT22;4837;50.890;4.724;2023-09-08T09:13:48;34.70;99.90
9598;DHT22;4837;50.890;4.724;2023-09-08T09:16:13;34.80;99.90
9598;DHT22;4837;50.890;4.724;2023-09-08T09:19:08;35.30;99.90
9598;DHT22;4837;50.890;4.724;2023-09-08T09:21:47;34.90;99.90
9598;DHT22;4837;50.890;4.724;2023-09-08T09:24:27;35.10;99.90
9598;DHT22;4837;50.890;4.724;2023-09-08T09:26:53;35.60;99.90
9598;DHT22;4837;50.890;4.724;2023-09-08T09:29:19;35.70;99.90
9598;DHT22;4837;50.890;4.724;2023-09-08T09:31:55;35.20;99.90
9598;DHT22;4837;50.890;4.724;2023-09-08T09:34:22;35.30;99.90
9598;DHT22;4837;50.890;4.724;2023-09-08T09:36:49;35.50;99.90
9598;DHT22;4837;50.890;4.724;2023-09-08T09:39:20;35.50;99.90
9598;DHT22;4837;50.890;4.724;2023-09-08T09:41:47;35.70;99.90
9598;DHT22;4837;50.890;4.724;2023-09-08T09:44:13;36.10;99.90
9598;DHT22;4837;50.890;4.724;2023-09-08T09:46:43;36.50;99.90
9598;DHT22;4837;50.890;4.724;2023-09-08T09:49:14;36.90;99.90
9598;DHT22;4837;50.890;4.724;2023-09-08T09:51:43;36.50;99.90
9598;DHT22;4837;50.890;4.724;2023-09-08T09:54:11;36.50;99.90
9598;DHT22;4837;50.890;4.724;2023-09-08T09:56:38;36.60;99.90
9598;DHT22;4837;50.890;4.724;2023-09-08T09:59:07;36.80;99.90
9598;DHT22;4837;50.890;4.724;2023-09-08T10:01:33;36.80;99.90
9598;DHT22;4837;50.890;4.724;2023-09-08T10:03:59;36.90;99.90
9598;DHT22;4837;50.890;4.724;2023-09-08T10:06:26;36.90;99.90
9598;DHT22;4837;50.890;4.724;2023-09-08T10:08:52;36.70;99.90
9598;DHT22;4837;50.890;4.724;2023-09-08T10:11:21;36.80;99.90
9598;DHT22;4837;50.890;4.724;2023-09-08T10:13:50;36.90;99.90
9598;DHT22;4837;50.890;4.724;2023-09-08T10:16:19;37.20;99.90
9598;DHT22;4837;50.890;4.724;2023-09-08T10:18:47;37.00;99.90
9598;DHT22;4837;50.890;4.724;2023-09-08T10:21:16;37.10;99.90
9598;DHT22;4837;50.890;4.724;2023-09-08T10:23:51;37.20;99.90
9598;DHT22;4837;50.890;4.724;2023-09-08T10:26:22;37.30;99.90
9598;DHT22;4837;50.890;4.724;2023-09-08T10:28:53;37.50;99.90
9598;DHT22;4837;50.890;4.724;2023-09-08T10:31:25;37.30;99.90
9598;DHT22;4837;50.890;4.724;2023-09-08T10:33:56;37.50;99.90
9598;DHT22;4837;50.890;4.724;2023-09-08T10:36:25;37.40;99.90
9598;DHT22;4837;50.890;4.724;2023-09-08T10:38:52;37.20;99.90
9598;DHT22;4837;50.890;4.724;2023-09-08T10:43:56;36.60;99.90
9598;DHT22;4837;50.890;4.724;2023-09-08T10:46:23;36.80;99.90
9598;DHT22;4837;50.890;4.724;2023-09-08T10:48:49;36.70;99.90
9598;DHT22;4837;50.890;4.724;2023-09-08T10:51:17;36.70;99.90
9598;DHT22;4837;50.890;4.724;2023-09-08T10:53:42;36.80;99.90
9598;DHT22;4837;50.890;4.724;2023-09-08T10:56:11;36.50;99.90
9598;DHT22;4837;50.890;4.724;2023-09-08T10:58:38;36.50;99.90
9598;DHT22;4837;50.890;4.724;2023-09-08T11:01:13;36.70;99.90
9598;DHT22;4837;50.890;4.724;2023-09-08T11:06:06;37.40;99.90
9598;DHT22;4837;50.890;4.724;2023-09-08T11:08:33;37.70;99.90
9598;DHT22;4837;50.890;4.724;2023-09-08T11:11:01;37.70;99.90
9598;DHT22;4837;50.890;4.724;2023-09-08T11:13:27;37.60;99.90
9598;DHT22;4837;50.890;4.724;2023-09-08T11:15:56;37.50;99.90
9598;DHT22;4837;50.890;4.724;2023-09-08T11:18:32;37.30;99.90
9598;DHT22;4837;50.890;4.724;2023-09-08T11:21:03;36.90;99.90
9598;DHT22;4837;50.890;4.724;2023-09-08T11:23:29;36.70;99.90
9598;DHT22;4837;50.890;4.724;2023-09-08T11:25:56;36.90;99.90
9598;DHT22;4837;50.890;4.724;2023-09-08T11:28:23;36.70;99.90
9598;DHT22;4837;50.890;4.724;2023-09-08T11:30:49;36.30;99.90
9598;DHT22;4837;50.890;4.724;2023-09-08T11:33:19;36.50;99.90
9598;DHT22;4837;50.890;4.724;2023-09-08T11:35:53;36.50;99.90
9598;DHT22;4837;50.890;4.724;2023-09-08T11:38:26;36.60;99.90
9598;DHT22;4837;50.890;4.724;2023-09-08T11:40:53;36.50;99.90
9598;DHT22;4837;50.890;4.724;2023-09-08T11:43:20;36.80;99.90
9598;DHT22;4837;50.890;4.724;2023-09-08T11:45:46;36.80;99.90
9598;DHT22;4837;50.890;4.724;2023-09-08T11:48:14;36.40;99.90
9598;DHT22;4837;50.890;4.724;2023-09-08T11:50:43;36.40;99.90
9598;DHT22;4837;50.890;4.724;2023-09-08T11:53:10;36.50;99.90
9598;DHT22;4837;50.890;4.724;2023-09-08T11:55:36;36.40;99.90
9598;DHT22;4837;50.890;4.724;2023-09-08T11:58:05;36.30;99.90
9598;DHT22;4837;50.890;4.724;2023-09-08T12:00:31;36.30;99.90
9598;DHT22;4837;50.890;4.724;2023-09-08T12:03:12;36.20;99.90
9598;DHT22;4837;50.890;4.724;2023-09-08T12:05:40;35.80;99.90
9598;DHT22;4837;50.890;4.724;2023-09-08T12:08:07;36.00;99.90
9598;DHT22;4837;50.890;4.724;2023-09-08T12:10:41;36.00;99.90
9598;DHT22;4837;50.890;4.724;2023-09-08T12:13:07;36.00;99.90
9598;DHT22;4837;50.890;4.724;2023-09-08T12:15:41;35.80;99.90
9598;DHT22;4837;50.890;4.724;2023-09-08T12:18:12;35.60;99.90
9598;DHT22;4837;50.890;4.724;2023-09-08T12:20:39;35.60;99.90
9598;DHT22;4837;50.890;4.724;2023-09-08T12:23:16;35.40;99.90
9598;DHT22;4837;50.890;4.724;2023-09-08T12:25:46;35.20;99.90
9598;DHT22;4837;50.890;4.724;2023-09-08T12:28:12;34.90;99.90
9598;DHT22;4837;50.890;4.724;2023-09-08T12:30:39;35.00;99.90
9598;DHT22;4837;50.890;4.724;2023-09-08T12:33:04;35.00;99.90
9598;DHT22;4837;50.890;4.724;2023-09-08T12:35:31;35.00;99.90
9598;DHT22;4837;50.890;4.724;2023-09-08T12:38:02;34.70;99.90
9598;DHT22;4837;50.890;4.724;2023-09-08T12:40:30;34.60;99.90
9598;DHT22;4837;50.890;4.724;2023-09-08T12:42:56;34.60;99.90
9598;DHT22;4837;50.890;4.724;2023-09-08T13:17:06;34.40;99.90
9598;DHT22;4837;50.890;4.724;2023-09-08T13:21:58;33.90;1.00
9598;DHT22;4837;50.890;4.724;2023-09-08T13:24:24;33.90;1.00
9598;DHT22;4837;50.890;4.724;2023-09-08T13:26:50;33.90;1.00
9598;DHT22;4837;50.890;4.724;2023-09-08T13:29:17;34.00;1.00
9598;DHT22;4837;50.890;4.724;2023-09-08T13:31:42;33.60;1.00
9598;DHT22;4837;50.890;4.724;2023-09-08T13:34:08;33.60;1.00
9598;DHT22;4837;50.890;4.724;2023-09-08T13:36:34;33.90;99.90
9598;DHT22;4837;50.890;4.724;2023-09-08T13:38:59;34.00;99.90
9598;DHT22;4837;50.890;4.724;2023-09-08T13:41:43;34.30;99.90
9598;DHT22;4837;50.890;4.724;2023-09-08T13:44:09;34.30;99.90
9598;DHT22;4837;50.890;4.724;2023-09-08T13:46:34;34.20;99.90
9598;DHT22;4837;50.890;4.724;2023-09-08T13:49:00;34.00;99.90
9598;DHT22;4837;50.890;4.724;2023-09-08T13:51:26;34.00;99.90
9598;DHT22;4837;50.890;4.724;2023-09-08T13:53:52;34.10;99.90
9598;DHT22;4837;50.890;4.724;2023-09-08T13:56:17;34.20;99.90
9598;DHT22;4837;50.890;4.724;2023-09-08T13:58:43;34.00;99.90
9598;DHT22;4837;50.890;4.724;2023-09-08T14:01:11;34.30;99.90
9598;DHT22;4837;50.890;4.724;2023-09-08T14:03:37;34.30;99.90
9598;DHT22;4837;50.890;4.724;2023-09-08T14:06:03;34.30;99.90
9598;DHT22;4837;50.890;4.724;2023-09-08T14:08:28;34.20;99.90
9598;DHT22;4837;50.890;4.724;2023-09-08T14:10:54;34.30;99.90
9598;DHT22;4837;50.890;4.724;2023-09-08T14:13:20;33.90;99.90
9598;DHT22;4837;50.890;4.724;2023-09-08T14:15:45;34.00;99.90
9598;DHT22;4837;50.890;4.724;2023-09-08T14:18:11;34.10;99.90
9598;DHT22;4837;50.890;4.724;2023-09-08T14:20:40;34.00;99.90
9598;DHT22;4837;50.890;4.724;2023-09-08T14:23:06;34.00;99.90
9598;DHT22;4837;50.890;4.724;2023-09-08T14:25:34;33.80;99.90
9598;DHT22;4837;50.890;4.724;2023-09-08T14:28:00;33.80;99.90
9598;DHT22;4837;50.890;4.724;2023-09-08T14:30:29;33.70;99.90
9598;DHT22;4837;50.890;4.724;2023-09-08T14:32:55;33.30;99.90
9598;DHT22;4837;50.890;4.724;2023-09-08T14:35:21;33.50;99.90
9598;DHT22;4837;50.890;4.724;2023-09-08T14:37:47;33.70;99.90
9598;DHT22;4837;50.890;4.724;2023-09-08T14:40:14;33.70;99.90
9598;DHT22;4837;50.890;4.724;2023-09-08T14:42:40;33.70;1.00
9598;DHT22;4837;50.890;4.724;2023-09-08T14:45:06;33.60;1.00
9598;DHT22;4837;50.890;4.724;2023-09-08T14:47:32;33.60;1.00
9598;DHT22;4837;50.890;4.724;2023-09-08T14:49:58;33.60;1.00
9598;DHT22;4837;50.890;4.724;2023-09-08T14:52:24;33.60;1.00
9598;DHT22;4837;50.890;4.724;2023-09-08T14:54:49;33.50;1.00
9598;DHT22;4837;50.890;4.724;2023-09-08T14:57:15;33.40;1.00
9598;DHT22;4837;50.890;4.724;2023-09-08T14:59:41;33.50;1.00
9598;DHT22;4837;50.890;4.724;2023-09-08T15:02:08;33.30;1.00
9598;DHT22;4837;50.890;4.724;2023-09-08T15:04:33;33.20;1.00
9598;DHT22;4837;50.890;4.724;2023-09-08T15:06:59;33.30;1.00
9598;DHT22;4837;50.890;4.724;2023-09-08T15:09:25;33.30;1.00
9598;DHT22;4837;50.890;4.724;2023-09-08T15:11:51;33.30;1.00
9598;DHT22;4837;50.890;4.724;2023-09-08T15:14:16;33.10;1.00
9598;DHT22;4837;50.890;4.724;2023-09-08T15:16:42;33.10;1.00
9598;DHT22;4837;50.890;4.724;2023-09-08T15:19:08;33.00;1.00
9598;DHT22;4837;50.890;4.724;2023-09-08T15:21:34;33.00;1.00
9598;DHT22;4837;50.890;4.724;2023-09-08T15:24:01;32.30;99.90
9598;DHT22;4837;50.890;4.724;2023-09-08T15:26:27;31.60;99.90
9598;DHT22;4837;50.890;4.724;2023-09-08T15:31:20;31.70;99.90
9598;DHT22;4837;50.890;4.724;2023-09-08T15:33:45;32.80;78.90
9598;DHT22;4837;50.890;4.724;2023-09-08T15:36:11;33.10;99.90
9598;DHT22;4837;50.890;4.724;2023-09-08T15:38:37;32.80;99.90
9598;DHT22;4837;50.890;4.724;2023-09-08T15:43:39;32.20;99.90
9598;DHT22;4837;50.890;4.724;2023-09-08T15:46:06;32.20;99.90
9598;DHT22;4837;50.890;4.724;2023-09-08T15:48:36;32.30;99.90
9598;DHT22;4837;50.890;4.724;2023-09-08T15:51:02;32.30;99.90
9598;DHT22;4837;50.890;4.724;2023-09-08T15:53:29;32.40;99.90
9598;DHT22;4837;50.890;4.724;2023-09-08T15:55:57;32.40;99.90
9598;DHT22;4837;50.890;4.724;2023-09-08T15:58:23;32.40;99.90
9598;DHT22;4837;50.890;4.724;2023-09-08T16:00:48;32.40;1.00
9598;DHT22;4837;50.890;4.724;2023-09-08T16:03:14;32.20;99.90
9598;DHT22;4837;50.890;4.724;2023-09-08T16:05:40;32.20;99.90
9598;DHT22;4837;50.890;4.724;2023-09-08T16:08:06;32.00;1.00
9598;DHT22;4837;50.890;4.724;2023-09-08T16:10:32;32.00;1.00
9598;DHT22;4837;50.890;4.724;2023-09-08T16:12:57;32.00;1.00
9598;DHT22;4837;50.890;4.724;2023-09-08T16:15:26;30.80;1.00
9598;DHT22;4837;50.890;4.724;2023-09-08T16:17:52;31.80;1.00
9598;DHT22;4837;50.890;4.724;2023-09-08T16:20:18;31.60;1.00
9598;DHT22;4837;50.890;4.724;2023-09-08T16:22:46;31.50;1.00
9598;DHT22;4837;50.890;4.724;2023-09-08T16:25:11;31.60;1.00
9598;DHT22;4837;50.890;4.724;2023-09-08T16:27:37;31.50;1.00
9598;DHT22;4837;50.890;4.724;2023-09-08T16:30:03;31.40;1.00
9598;DHT22;4837;50.890;4.724;2023-09-08T16:32:29;31.50;1.00
9598;DHT22;4837;50.890;4.724;2023-09-08T16:34:54;31.40;99.90
9598;DHT22;4837;50.890;4.724;2023-09-08T16:37:20;31.50;99.90
9598;DHT22;4837;50.890;4.724;2023-09-08T16:39:46;31.30;1.00
9598;DHT22;4837;50.890;4.724;2023-09-08T16:42:12;31.40;99.90
9598;DHT22;4837;50.890;4.724;2023-09-08T16:44:38;31.40;99.90
9598;DHT22;4837;50.890;4.724;2023-09-08T16:47:04;31.30;99.90
9598;DHT22;4837;50.890;4.724;2023-09-08T16:49:30;31.30;99.90
9598;DHT22;4837;50.890;4.724;2023-09-08T16:51:57;31.20;1.00
9598;DHT22;4837;50.890;4.724;2023-09-08T16:54:22;31.20;99.90
9598;DHT22;4837;50.890;4.724;2023-09-08T16:56:48;31.00;99.90
9598;DHT22;4837;50.890;4.724;2023-09-08T17:01:41;31.00;1.00
9598;DHT22;4837;50.890;4.724;2023-09-08T17:04:07;30.90;1.00
9598;DHT22;4837;50.890;4.724;2023-09-08T17:06:35;30.80;1.00
9598;DHT22;4837;50.890;4.724;2023-09-08T17:09:00;30.70;1.00
9598;DHT22;4837;50.890;4.724;2023-09-08T17:11:26;30.60;99.90
9598;DHT22;4837;50.890;4.724;2023-09-08T17:13:52;30.50;1.00
9598;DHT22;4837;50.890;4.724;2023-09-08T17:16:18;30.50;1.00
9598;DHT22;4837;50.890;4.724;2023-09-08T17:18:43;30.60;1.00
9598;DHT22;4837;50.890;4.724;2023-09-08T17:21:09;30.50;1.00
9598;DHT22;4837;50.890;4.724;2023-09-08T17:23:37;30.40;1.00
9598;DHT22;4837;50.890;4.724;2023-09-08T17:26:03;30.30;92.30
9598;DHT22;4837;50.890;4.724;2023-09-08T17:28:29;30.30;99.90
9598;DHT22;4837;50.890;4.724;2023-09-08T17:30:54;30.20;1.00
9598;DHT22;4837;50.890;4.724;2023-09-08T17:33:20;30.20;99.90
9598;DHT22;4837;50.890;4.724;2023-09-08T17:35:47;30.00;99.90
9598;DHT22;4837;50.890;4.724;2023-09-08T17:38:13;30.00;99.90
9598;DHT22;4837;50.890;4.724;2023-09-08T17:40:38;29.90;1.00
9598;DHT22;4837;50.890;4.724;2023-09-08T17:43:04;29.90;1.00
9598;DHT22;4837;50.890;4.724;2023-09-08T17:45:30;29.80;99.90
9598;DHT22;4837;50.890;4.724;2023-09-08T17:47:56;29.70;1.00
9598;DHT22;4837;50.890;4.724;2023-09-08T17:50:27;29.50;35.30
9598;DHT22;4837;50.890;4.724;2023-09-08T17:52:53;29.20;99.90
9598;DHT22;4837;50.890;4.724;2023-09-08T17:55:18;29.00;1.00
9598;DHT22;4837;50.890;4.724;2023-09-08T17:57:44;28.80;99.90
9598;DHT22;4837;50.890;4.724;2023-09-08T18:00:10;28.60;1.00
9598;DHT22;4837;50.890;4.724;2023-09-08T18:02:36;28.50;62.60
9598;DHT22;4837;50.890;4.724;2023-09-08T18:05:02;28.40;99.90
9598;DHT22;4837;50.890;4.724;2023-09-08T18:07:27;28.30;99.90
9598;DHT22;4837;50.890;4.724;2023-09-08T18:09:53;28.10;99.90
9598;DHT22;4837;50.890;4.724;2023-09-08T18:12:19;28.00;99.90
9598;DHT22;4837;50.890;4.724;2023-09-08T18:14:45;27.90;1.00
9598;DHT22;4837;50.890;4.724;2023-09-08T18:17:10;27.70;1.00
9598;DHT22;4837;50.890;4.724;2023-09-08T18:19:36;27.60;1.00
9598;DHT22;4837;50.890;4.724;2023-09-08T18:22:03;27.40;1.00
9598;DHT22;4837;50.890;4.724;2023-09-08T18:24:30;27.30;1.00
9598;DHT22;4837;50.890;4.724;2023-09-08T18:26:56;27.20;1.00
9598;DHT22;4837;50.890;4.724;2023-09-08T18:29:21;27.10;1.00
9598;DHT22;4837;50.890;4.724;2023-09-08T18:31:47;27.10;1.00
9598;DHT22;4837;50.890;4.724;2023-09-08T18:34:13;27.00;1.00
9598;DHT22;4837;50.890;4.724;2023-09-08T18:36:40;26.90;1.00
9598;DHT22;4837;50.890;4.724;2023-09-08T18:39:06;26.80;8.10
9598;DHT22;4837;50.890;4.724;2023-09-08T18:41:32;26.60;20.40
9598;DHT22;4837;50.890;4.724;2023-09-08T18:43:57;26.60;24.40
9598;DHT22;4837;50.890;4.724;2023-09-08T18:46:23;26.50;38.40
9598;DHT22;4837;50.890;4.724;2023-09-08T18:48:50;26.40;46.40
9598;DHT22;4837;50.890;4.724;2023-09-08T18:51:16;26.30;76.20
9598;DHT22;4837;50.890;4.724;2023-09-08T18:53:42;26.20;66.40
9598;DHT22;4837;50.890;4.724;2023-09-08T18:56:08;26.20;87.80
9598;DHT22;4837;50.890;4.724;2023-09-08T18:58:34;26.10;93.20
9598;DHT22;4837;50.890;4.724;2023-09-08T19:01:06;26.00;93.80
9598;DHT22;4837;50.890;4.724;2023-09-08T19:03:32;26.00;98.80
9598;DHT22;4837;50.890;4.724;2023-09-08T19:05:58;26.00;96.80
9598;DHT22;4837;50.890;4.724;2023-09-08T19:08:24;25.20;99.60
9598;DHT22;4837;50.890;4.724;2023-09-08T19:10:50;25.70;99.90
9598;DHT22;4837;50.890;4.724;2023-09-08T19:13:16;25.80;99.90
9598;DHT22;4837;50.890;4.724;2023-09-08T19:15:42;25.80;99.90
9598;DHT22;4837;50.890;4.724;2023-09-08T19:18:07;25.70;99.90
9598;DHT22;4837;50.890;4.724;2023-09-08T19:20:33;25.70;99.90
9598;DHT22;4837;50.890;4.724;2023-09-08T19:23:00;25.60;99.90
9598;DHT22;4837;50.890;4.724;2023-09-08T19:25:26;25.50;99.90
9598;DHT22;4837;50.890;4.724;2023-09-08T19:27:52;25.50;99.90
9598;DHT22;4837;50.890;4.724;2023-09-08T19:30:18;25.50;99.90
9598;DHT22;4837;50.890;4.724;2023-09-08T19:32:44;25.40;99.90
9598;DHT22;4837;50.890;4.724;2023-09-08T19:35:10;25.30;99.90
9598;DHT22;4837;50.890;4.724;2023-09-08T19:37:37;25.30;99.90
9598;DHT22;4837;50.890;4.724;2023-09-08T19:40:04;25.30;99.90
9598;DHT22;4837;50.890;4.724;2023-09-08T19:42:30;25.30;99.90
9598;DHT22;4837;50.890;4.724;2023-09-08T19:44:56;25.20;99.90
9598;DHT22;4837;50.890;4.724;2023-09-08T19:47:21;25.10;99.90
9598;DHT22;4837;50.890;4.724;2023-09-08T19:49:47;25.10;99.90
9598;DHT22;4837;50.890;4.724;2023-09-08T19:52:13;25.10;99.90
9598;DHT22;4837;50.890;4.724;2023-09-08T19:54:40;25.00;99.90
9598;DHT22;4837;50.890;4.724;2023-09-08T19:57:06;25.00;99.90
9598;DHT22;4837;50.890;4.724;2023-09-08T19:59:32;24.90;99.90
9598;DHT22;4837;50.890;4.724;2023-09-08T20:01:57;24.90;99.90
9598;DHT22;4837;50.890;4.724;2023-09-08T20:04:23;24.80;99.90
9598;DHT22;4837;50.890;4.724;2023-09-08T20:06:49;24.80;99.90
9598;DHT22;4837;50.890;4.724;2023-09-08T20:09:16;24.70;99.90
9598;DHT22;4837;50.890;4.724;2023-09-08T20:11:43;24.60;99.90
9598;DHT22;4837;50.890;4.724;2023-09-08T20:14:10;24.50;99.90
9598;DHT22;4837;50.890;4.724;2023-09-08T20:16:36;24.50;99.90
9598;DHT22;4837;50.890;4.724;2023-09-08T20:19:02;24.50;99.90
9598;DHT22;4837;50.890;4.724;2023-09-08T20:21:28;24.50;99.90
9598;DHT22;4837;50.890;4.724;2023-09-08T20:23:54;24.50;99.90
9598;DHT22;4837;50.890;4.724;2023-09-08T20:26:21;24.50;99.90
9598;DHT22;4837;50.890;4.724;2023-09-08T20:28:47;24.50;99.90
9598;DHT22;4837;50.890;4.724;2023-09-08T20:31:17;24.50;99.90
9598;DHT22;4837;50.890;4.724;2023-09-08T20:33:44;24.60;99.90
9598;DHT22;4837;50.890;4.724;2023-09-08T20:36:11;24.60;99.90
9598;DHT22;4837;50.890;4.724;2023-09-08T20:38:36;24.60;99.90
9598;DHT22;4837;50.890;4.724;2023-09-08T20:41:03;24.50;99.90
9598;DHT22;4837;50.890;4.724;2023-09-08T20:43:29;24.50;99.90
9598;DHT22;4837;50.890;4.724;2023-09-08T20:45:57;24.50;99.90
9598;DHT22;4837;50.890;4.724;2023-09-08T20:48:34;24.50;99.90
9598;DHT22;4837;50.890;4.724;2023-09-08T20:51:07;24.50;99.90
9598;DHT22;4837;50.890;4.724;2023-09-08T20:53:35;24.40;99.90
9598;DHT22;4837;50.890;4.724;2023-09-08T20:56:04;24.40;99.90
9598;DHT22;4837;50.890;4.724;2023-09-08T20:58:35;24.50;99.90
9598;DHT22;4837;50.890;4.724;2023-09-08T21:01:01;24.40;99.90
9598;DHT22;4837;50.890;4.724;2023-09-08T21:03:27;24.50;99.90
9598;DHT22;4837;50.890;4.724;2023-09-08T21:05:53;24.50;99.90
9598;DHT22;4837;50.890;4.724;2023-09-08T21:08:19;24.50;99.90
9598;DHT22;4837;50.890;4.724;2023-09-08T21:10:46;24.40;99.90
9598;DHT22;4837;50.890;4.724;2023-09-08T21:13:12;24.30;99.90
9598;DHT22;4837;50.890;4.724;2023-09-08T21:15:38;24.30;99.90
9598;DHT22;4837;50.890;4.724;2023-09-08T21:18:04;24.30;99.90
9598;DHT22;4837;50.890;4.724;2023-09-08T21:20:30;24.20;99.90
9598;DHT22;4837;50.890;4.724;2023-09-08T21:22:56;24.20;99.90
9598;DHT22;4837;50.890;4.724;2023-09-08T21:25:22;24.20;99.90
9598;DHT22;4837;50.890;4.724;2023-09-08T21:27:49;24.10;99.90
9598;DHT22;4837;50.890;4.724;2023-09-08T21:30:15;24.10;99.90
9598;DHT22;4837;50.890;4.724;2023-09-08T21:32:41;24.00;99.90
9598;DHT22;4837;50.890;4.724;2023-09-08T21:35:07;23.90;99.90
9598;DHT22;4837;50.890;4.724;2023-09-08T21:37:33;23.90;99.90
9598;DHT22;4837;50.890;4.724;2023-09-08T21:39:58;23.80;99.90
9598;DHT22;4837;50.890;4.724;2023-09-08T21:42:24;23.80;99.90
9598;DHT22;4837;50.890;4.724;2023-09-08T21:44:50;23.80;99.90
9598;DHT22;4837;50.890;4.724;2023-09-08T21:47:16;23.80;99.90
9598;DHT22;4837;50.890;4.724;2023-09-08T21:49:41;23.80;99.90
9598;DHT22;4837;50.890;4.724;2023-09-08T21:52:07;23.80;99.90
9598;DHT22;4837;50.890;4.724;2023-09-08T21:54:33;23.80;99.90
9598;DHT22;4837;50.890;4.724;2023-09-08T21:56:59;23.60;99.90
9598;DHT22;4837;50.890;4.724;2023-09-08T21:59:24;23.60;99.90
9598;DHT22;4837;50.890;4.724;2023-09-08T22:01:50;23.40;99.90
9598;DHT22;4837;50.890;4.724;2023-09-08T22:04:16;23.30;99.90
9598;DHT22;4837;50.890;4.724;2023-09-08T22:06:42;23.20;99.90
9598;DHT22;4837;50.890;4.724;2023-09-08T22:09:08;23.10;99.90
9598;DHT22;4837;50.890;4.724;2023-09-08T22:11:34;23.10;99.90
9598;DHT22;4837;50.890;4.724;2023-09-08T22:13:59;23.00;99.90
9598;DHT22;4837;50.890;4.724;2023-09-08T22:16:25;22.90;99.90
9598;DHT22;4837;50.890;4.724;2023-09-08T22:18:51;22.80;99.90
9598;DHT22;4837;50.890;4.724;2023-09-08T22:21:17;22.70;99.90
9598;DHT22;4837;50.890;4.724;2023-09-08T22:23:43;22.70;99.90
9598;DHT22;4837;50.890;4.724;2023-09-08T22:26:16;22.70;99.90
9598;DHT22;4837;50.890;4.724;2023-09-08T22:28:42;22.70;99.90
9598;DHT22;4837;50.890;4.724;2023-09-08T22:31:11;22.80;99.90
9598;DHT22;4837;50.890;4.724;2023-09-08T22:33:38;22.70;99.90
9598;DHT22;4837;50.890;4.724;2023-09-08T22:36:04;22.60;99.90
9598;DHT22;4837;50.890;4.724;2023-09-08T22:38:30;22.60;99.90
9598;DHT22;4837;50.890;4.724;2023-09-08T22:40:59;22.50;99.90
9598;DHT22;4837;50.890;4.724;2023-09-08T22:43:25;22.40;99.90
9598;DHT22;4837;50.890;4.724;2023-09-08T22:45:51;22.40;99.90
9598;DHT22;4837;50.890;4.724;2023-09-08T22:48:16;22.30;99.90
9598;DHT22;4837;50.890;4.724;2023-09-08T22:50:46;22.20;99.90
9598;DHT22;4837;50.890;4.724;2023-09-08T22:53:12;22.20;99.90
9598;DHT22;4837;50.890;4.724;2023-09-08T22:55:39;22.20;99.90
9598;DHT22;4837;50.890;4.724;2023-09-08T22:58:05;22.20;99.90
9598;DHT22;4837;50.890;4.724;2023-09-08T23:00:31;22.20;99.90
9598;DHT22;4837;50.890;4.724;2023-09-08T23:02:57;22.20;99.90
9598;DHT22;4837;50.890;4.724;2023-09-08T23:05:23;22.20;99.90
9598;DHT22;4837;50.890;4.724;2023-09-08T23:07:48;22.20;99.90
9598;DHT22;4837;50.890;4.724;2023-09-08T23:10:14;22.20;99.90
9598;DHT22;4837;50.890;4.724;2023-09-08T23:12:41;22.10;99.90
9598;DHT22;4837;50.890;4.724;2023-09-08T23:15:07;22.10;99.90
9598;DHT22;4837;50.890;4.724;2023-09-08T23:17:33;22.10;99.90
9598;DHT22;4837;50.890;4.724;2023-09-08T23:19:59;22.00;99.90
9598;DHT22;4837;50.890;4.724;2023-09-08T23:22:25;21.90;99.90
9598;DHT22;4837;50.890;4.724;2023-09-08T23:24:50;21.90;99.90
9598;DHT22;4837;50.890;4.724;2023-09-08T23:27:16;21.90;99.90
9598;DHT22;4837;50.890;4.724;2023-09-08T23:29:44;21.80;99.90
9598;DHT22;4837;50.890;4.724;2023-09-08T23:32:09;21.80;99.90
9598;DHT22;4837;50.890;4.724;2023-09-08T23:34:37;21.80;99.90
9598;DHT22;4837;50.890;4.724;2023-09-08T23:37:03;21.80;99.90
9598;DHT22;4837;50.890;4.724;2023-09-08T23:39:32;21.80;99.90
9598;DHT22;4837;50.890;4.724;2023-09-08T23:41:57;21.80;99.90
9598;DHT22;4837;50.890;4.724;2023-09-08T23:44:23;21.80;99.90
9598;DHT22;4837;50.890;4.724;2023-09-08T23:46:50;21.80;99.90
9598;DHT22;4837;50.890;4.724;2023-09-08T23:49:16;21.80;99.90
9598;DHT22;4837;50.890;4.724;2023-09-08T23:51:41;21.80;99.90
9598;DHT22;4837;50.890;4.724;2023-09-08T23:54:07;21.70;99.90
9598;DHT22;4837;50.890;4.724;2023-09-08T23:56:33;21.70;99.90
9598;DHT22;4837;50.890;4.724;2023-09-08T23:59:00;21.60;99.90
